Time;durP1;ratioP1;P1;durP2;ratioP2;P2;SDS_P1;SDS_P2;PMS_P1;PMS_P2;Temp;Humidity;BMP_temperature;BMP_pressure;BME280_temperature;BME280_humidity;BME280_pressure;Samples;Min_cycle;Max_cycle;Signal;HPM_P1;HPM_P2
2022/05/27 00:01:16;;;;;;;54.10;6.75;;;;;;;14.48;94.53;101960.41;4972835;28;20030;-40
2022/05/27 00:03:41;;;;;;;51.20;6.20;;;;;;;14.37;94.77;101963.50;4973017;28;20465;-41
2022/05/27 00:06:07;;;;;;;45.13;5.80;;;;;;;14.30;94.81;101954.44;4973491;28;20051;-39
2022/05/27 00:08:32;;;;;;;37.15;5.60;;;;;;;14.20;94.90;101938.41;4973204;28;20030;-35
2022/05/27 00:10:59;;;;;;;46.80;5.90;;;;;;;14.15;94.99;101945.38;4974137;28;20085;-36
2022/05/27 00:13:25;;;;;;;38.47;5.55;;;;;;;14.11;95.23;101946.75;4974860;28;20111;-34
2022/05/27 00:15:51;;;;;;;29.35;5.35;;;;;;;14.04;95.21;101950.16;4975396;28;20475;-34
2022/05/27 00:18:16;;;;;;;38.65;4.88;;;;;;;14.01;94.88;101938.88;4975795;28;20067;-35
2022/05/27 00:20:42;;;;;;;27.20;4.50;;;;;;;13.96;94.26;101946.69;4977812;28;20106;-34
2022/05/27 00:23:07;;;;;;;25.95;5.15;;;;;;;13.95;94.01;101936.84;4979497;28;20035;-33
2022/05/27 00:25:33;;;;;;;27.80;4.90;;;;;;;13.93;93.88;101942.47;4981205;28;20390;-34
2022/05/27 00:27:59;;;;;;;36.10;5.03;;;;;;;13.96;93.92;101933.97;4964959;28;20058;-34
2022/05/27 00:30:25;;;;;;;38.97;5.22;;;;;;;14.01;94.31;101928.03;4982862;28;20553;-34
2022/05/27 00:32:50;;;;;;;33.63;5.53;;;;;;;14.01;94.71;101938.88;4983245;28;20019;-33
2022/05/27 00:35:15;;;;;;;32.08;5.57;;;;;;;14.03;94.88;101934.09;4984515;28;20061;-34
2022/05/27 00:37:41;;;;;;;32.47;5.25;;;;;;;14.04;94.96;101927.69;4984174;28;20041;-33
2022/05/27 00:40:08;;;;;;;39.90;6.28;;;;;;;14.09;95.37;101929.84;4986776;28;20057;-33
2022/05/27 00:42:33;;;;;;;45.88;7.38;;;;;;;14.10;95.87;101932.38;4986070;28;20441;-33
2022/05/27 00:44:58;;;;;;;40.20;6.53;;;;;;;14.17;96.01;101938.75;4986344;28;20027;-33
2022/05/27 00:47:25;;;;;;;55.17;7.82;;;;;;;14.18;96.28;101929.59;4985752;28;20019;-35
2022/05/27 00:49:57;;;;;;;53.53;8.00;;;;;;;14.22;96.35;101936.38;4968315;28;20050;-36
2022/05/27 00:52:26;;;;;;;53.58;7.95;;;;;;;14.25;96.59;101919.75;4985302;28;20062;-33
2022/05/27 00:54:52;;;;;;;53.45;7.10;;;;;;;14.28;96.75;101913.97;4968485;28;20038;-34
2022/05/27 00:57:25;;;;;;;48.05;7.07;;;;;;;14.31;96.68;101920.91;4988169;28;20031;-33
2022/05/27 00:59:54;;;;;;;43.75;6.22;;;;;;;14.31;96.54;101929.03;4970167;28;20030;-34
2022/05/27 01:02:20;;;;;;;42.67;6.43;;;;;;;14.29;96.12;101928.34;4986501;28;20131;-34
2022/05/27 01:04:47;;;;;;;52.70;7.05;;;;;;;14.30;95.82;101926.47;4987611;28;20039;-33
2022/05/27 01:07:12;;;;;;;44.50;6.50;;;;;;;14.35;95.74;101924.06;4987218;28;20058;-34
2022/05/27 01:09:40;;;;;;;55.47;7.00;;;;;;;14.32;95.44;101924.44;4985815;28;20035;-36
2022/05/27 01:12:21;;;;;;;47.35;6.68;;;;;;;14.34;95.16;101916.97;4967985;28;20077;-34
2022/05/27 01:15:11;;;;;;;43.85;5.80;;;;;;;14.37;95.12;101925.56;4984604;28;20041;-36
2022/05/27 01:17:55;;;;;;;46.60;7.10;;;;;;;14.38;95.17;101924.56;4968701;28;20073;-35
2022/05/27 01:20:36;;;;;;;37.85;5.97;;;;;;;14.41;95.03;101924.22;4986640;28;20374;-33
2022/05/27 01:23:32;;;;;;;40.95;5.70;;;;;;;14.40;94.97;101922.53;4953510;28;20026;-34
2022/05/27 01:26:32;;;;;;;33.08;5.78;;;;;;;14.41;94.45;101928.78;4986769;28;20031;-34
2022/05/27 01:29:10;;;;;;;48.25;6.40;;;;;;;14.40;94.10;101916.25;4979044;28;20534;-34
2022/05/27 01:31:56;;;;;;;33.03;5.72;;;;;;;14.37;94.20;101922.88;4987782;28;20039;-33
2022/05/27 01:34:34;;;;;;;39.78;5.97;;;;;;;14.37;94.25;101927.44;4987025;28;20042;-33
2022/05/27 01:37:08;;;;;;;37.80;5.57;;;;;;;14.38;93.86;101916.44;4978873;28;20038;-36
2022/05/27 01:39:50;;;;;;;43.58;6.93;;;;;;;14.38;94.27;101918.31;4967443;28;20125;-36
2022/05/27 01:42:25;;;;;;;36.35;6.28;;;;;;;14.37;94.31;101916.63;4986269;28;20043;-36
2022/05/27 01:45:12;;;;;;;37.13;4.80;;;;;;;14.33;94.14;101920.72;4988328;28;20035;-37
2022/05/27 01:48:00;;;;;;;43.77;6.30;;;;;;;14.28;93.88;101918.56;4987391;28;20030;-34
2022/05/27 01:50:36;;;;;;;29.05;5.10;;;;;;;14.32;93.75;101919.84;4985993;28;20327;-36
2022/05/27 01:53:10;;;;;;;30.65;5.25;;;;;;;14.29;93.61;101920.22;4985734;28;20041;-34
2022/05/27 01:56:13;;;;;;;47.42;6.18;;;;;;;14.28;93.72;101919.38;4986384;28;20062;-33
2022/05/27 01:58:45;;;;;;;38.55;5.88;;;;;;;14.21;93.34;101907.59;4970885;28;20030;-33
2022/05/27 02:01:15;;;;;;;35.20;5.60;;;;;;;14.16;93.44;101909.97;4969553;28;20149;-35
2022/05/27 02:03:44;;;;;;;33.47;5.70;;;;;;;14.12;93.34;101900.56;4970717;28;20035;-33
2022/05/27 02:06:17;;;;;;;41.78;4.88;;;;;;;14.08;93.45;101906.50;4971259;28;20042;-33
2022/05/27 02:08:52;;;;;;;33.58;5.78;;;;;;;14.06;93.78;101901.28;4969127;28;20435;-35
2022/05/27 02:11:20;;;;;;;25.73;5.45;;;;;;;14.03;94.03;101912.44;4986732;28;20509;-33
2022/05/27 02:13:47;;;;;;;;;;;;;;;14.02;94.23;101908.06;4987503;28;20067;-32
2022/05/27 02:16:17;;;;;;;34.42;5.50;;;;;;;14.00;94.36;101904.69;4969502;28;19928;-34
2022/05/27 02:18:57;;;;;;;24.63;5.80;;;;;;;14.00;94.01;101912.81;4970403;28;20034;-33
2022/05/27 02:21:34;;;;;;;24.42;4.88;;;;;;;13.95;93.98;101907.09;4986977;28;20042;-36
2022/05/27 02:24:05;;;;;;;39.83;5.87;;;;;;;13.94;93.89;101908.94;4970029;28;20111;-34
2022/05/27 02:26:32;;;;;;;20.90;5.13;;;;;;;13.92;93.87;101902.03;4970952;28;20042;-33
2022/05/27 02:29:10;;;;;;;31.88;4.88;;;;;;;13.90;94.12;101909.47;4969909;28;20050;-34
2022/05/27 02:31:37;;;;;;;25.33;4.68;;;;;;;13.88;94.19;101896.13;4970207;28;20042;-35
2022/05/27 02:37:07;;;;;;;21.38;4.95;;;;;;;13.88;94.25;101906.13;4940172;29;20087;-81
2022/05/27 02:39:32;;;;;;;28.30;4.70;;;;;;;13.89;94.39;101905.09;4933235;29;20036;-82
2022/05/27 02:42:28;;;;;;;26.00;5.05;;;;;;;13.91;94.26;101906.59;4936073;29;20367;-82
2022/05/27 02:45:25;;;;;;;25.63;4.90;;;;;;;13.94;94.11;101906.25;4939024;29;20507;-83
2022/05/27 02:48:18;;;;;;;22.73;4.73;;;;;;;13.91;93.57;101900.34;4957956;29;20039;-83
2022/05/27 02:50:58;;;;;;;22.25;5.28;;;;;;;13.91;93.45;101912.03;4956338;29;20291;-82
2022/05/27 02:53:31;;;;;;;30.95;4.82;;;;;;;13.89;93.47;101905.09;4968992;28;20039;-85
2022/05/27 02:56:20;;;;;;;19.13;4.53;;;;;;;13.90;93.70;101923.00;4967995;28;20032;-83
2022/05/27 02:58:45;;;;;;;31.27;5.10;;;;;;;13.93;93.40;101909.13;4954292;29;20044;-86
2022/05/27 03:01:11;;;;;;;24.55;5.40;;;;;;;13.92;93.30;101907.44;4971913;29;20039;-86
2022/05/27 03:03:37;;;;;;;28.25;5.35;;;;;;;13.93;93.38;101909.97;4939940;29;20055;-82
2022/05/27 03:06:27;;;;;;;33.95;5.18;;;;;;;13.94;93.32;101905.41;4976752;28;20023;-82
2022/05/27 03:09:03;;;;;;;31.55;5.10;;;;;;;13.94;93.36;101916.22;4962307;29;20038;-84
2022/05/27 03:12:07;;;;;;;30.77;5.40;;;;;;;13.91;93.06;101911.19;4977353;28;20034;-84
2022/05/27 03:14:50;;;;;;;30.10;4.93;;;;;;;13.87;93.03;101904.44;4967156;28;20039;-84
2022/05/27 03:17:32;;;;;;;26.17;5.25;;;;;;;13.88;93.13;101917.78;4975224;28;20103;-82
2022/05/27 03:20:19;;;;;;;28.00;4.93;;;;;;;13.86;93.02;101916.28;4959049;28;20036;-82
2022/05/27 03:22:56;;;;;;;30.85;5.03;;;;;;;13.86;93.05;101913.56;4961398;28;20061;-81
2022/05/27 03:25:41;;;;;;;23.70;4.85;;;;;;;13.83;93.28;101915.59;4962037;28;20051;-81
2022/05/27 03:28:27;;;;;;;20.42;4.35;;;;;;;13.84;92.95;101917.28;4958357;28;20035;-84
2022/05/27 03:31:03;;;;;;;22.20;5.93;;;;;;;13.83;92.99;101918.31;4946694;29;20032;-85
2022/05/27 03:33:36;;;;;;;30.55;6.00;;;;;;;13.83;92.74;101925.59;4951008;29;20032;-84
2022/05/27 03:36:07;;;;;;;30.63;4.68;;;;;;;13.77;92.71;101921.75;4953638;29;20122;-81
2022/05/27 03:38:58;;;;;;;20.23;4.57;;;;;;;13.76;92.53;101928.16;4959998;29;20094;-82
2022/05/27 03:41:29;;;;;;;21.17;4.88;;;;;;;13.72;92.56;101916.00;4956364;29;20130;-81
2022/05/27 03:43:54;;;;;;;24.77;4.43;;;;;;;13.73;91.75;101920.38;4957753;29;20031;-82
2022/05/27 03:46:31;;;;;;;29.15;4.65;;;;;;;13.72;91.33;101926.84;4959100;29;20038;-82
2022/05/27 03:48:57;;;;;;;28.23;4.80;;;;;;;13.74;90.64;101918.53;4958166;29;20444;-82
2022/05/27 03:51:26;;;;;;;12.70;3.53;;;;;;;13.74;90.32;101926.63;4962503;29;20111;-81
2022/05/27 03:54:03;;;;;;;17.50;3.80;;;;;;;13.77;89.59;101926.28;4948770;29;20725;-83
2022/05/27 03:56:36;;;;;;;16.88;3.67;;;;;;;13.76;89.55;101930.03;4946098;29;20031;-82
2022/05/27 03:59:03;;;;;;;18.67;3.72;;;;;;;13.76;88.98;101930.84;4956518;29;20035;-82
2022/05/27 04:01:31;;;;;;;15.95;3.78;;;;;;;13.74;88.56;101927.47;4949156;28;20091;-87
2022/05/27 04:04:01;;;;;;;12.55;3.08;;;;;;;13.76;88.18;101935.44;4957294;29;20011;-86
2022/05/27 04:06:28;;;;;;;17.88;3.80;;;;;;;13.80;87.94;101932.19;4959701;29;20071;-84
2022/05/27 04:08:54;;;;;;;17.98;3.83;;;;;;;13.79;87.86;101925.09;4941290;29;20031;-82
2022/05/27 04:11:19;;;;;;;19.38;3.67;;;;;;;13.73;87.31;101928.50;4953771;29;20031;-82
2022/05/27 04:13:45;;;;;;;13.68;3.55;;;;;;;13.72;87.58;101924.13;4957651;29;20078;-82
2022/05/27 04:16:11;;;;;;;19.15;3.85;;;;;;;13.74;87.53;101930.19;4951043;29;20035;-85
2022/05/27 04:18:36;;;;;;;16.08;3.72;;;;;;;13.76;87.77;101935.44;4962147;29;20019;-83
2022/05/27 04:21:02;;;;;;;17.77;4.32;;;;;;;13.76;88.27;101936.25;4956966;29;20126;-83
2022/05/27 04:23:27;;;;;;;14.18;3.50;;;;;;;13.78;88.40;101928.00;4957469;29;20173;-81
2022/05/27 04:25:53;;;;;;;18.63;4.05;;;;;;;13.81;88.65;101933.88;4951572;29;20070;-83
2022/05/27 04:28:18;;;;;;;25.05;4.32;;;;;;;13.81;88.37;101939.28;4972044;29;20015;-83
2022/05/27 04:30:45;;;;;;;17.17;3.83;;;;;;;13.87;89.24;101947.72;4973018;28;20349;-83
2022/05/27 04:33:11;;;;;;;22.42;4.10;;;;;;;13.91;88.55;101938.25;4973284;28;20110;-83
2022/05/27 04:35:36;;;;;;;19.83;3.78;;;;;;;13.99;88.58;101939.03;4967628;28;20051;-83
2022/05/27 04:38:02;;;;;;;12.82;3.72;;;;;;;14.08;88.42;101939.81;4973555;28;20157;-83
2022/05/27 04:40:28;;;;;;;16.25;4.00;;;;;;;14.09;87.83;101941.53;4975388;28;20040;-83
2022/05/27 04:42:53;;;;;;;23.27;3.97;;;;;;;14.14;87.49;101947.25;4963219;29;20047;-83
2022/05/27 04:45:21;;;;;;;22.38;4.35;;;;;;;14.21;86.92;101950.06;4967298;28;20054;-84
2022/05/27 04:47:48;;;;;;;26.08;4.05;;;;;;;14.28;86.44;101951.88;4969643;29;20055;-83
2022/05/27 04:50:14;;;;;;;19.13;4.65;;;;;;;14.33;85.83;101950.53;4940305;29;20109;-85
2022/05/27 04:52:40;;;;;;;18.20;3.85;;;;;;;14.34;85.51;101953.03;4953711;29;20087;-83
2022/05/27 04:55:08;;;;;;;25.10;4.15;;;;;;;14.36;84.99;101959.13;4962712;29;20039;-83
2022/05/27 04:57:39;;;;;;;15.60;3.25;;;;;;;14.44;84.99;101950.94;4965593;29;20086;-85
2022/05/27 05:00:08;;;;;;;18.13;3.55;;;;;;;14.48;84.42;101959.53;4948055;29;20027;-85
2022/05/27 05:02:34;;;;;;;20.17;3.78;;;;;;;14.57;83.92;101963.91;4961171;29;20098;-85
2022/05/27 05:04:59;;;;;;;19.30;3.40;;;;;;;14.61;83.70;101967.94;4962002;28;20028;-84
2022/05/27 05:07:25;;;;;;;16.08;3.83;;;;;;;14.69;82.86;101970.59;4953371;29;20031;-85
2022/05/27 05:09:51;;;;;;;16.10;3.15;;;;;;;14.76;82.85;101961.72;4950155;29;20058;-84
2022/05/27 05:12:22;;;;;;;21.02;3.10;;;;;;;14.75;82.14;101974.44;4963502;28;20019;-82
2022/05/27 05:14:47;;;;;;;16.17;2.95;;;;;;;14.73;82.04;101970.22;4947556;29;20034;-83
2022/05/27 05:17:13;;;;;;;12.82;3.00;;;;;;;14.68;81.62;101970.75;4955035;28;20079;-82
2022/05/27 05:19:38;;;;;;;13.38;3.45;;;;;;;14.62;80.57;101975.03;4968541;29;20032;-82
2022/05/27 05:22:04;;;;;;;19.35;3.72;;;;;;;14.55;81.18;101970.53;4950364;28;20111;-82
2022/05/27 05:24:29;;;;;;;15.15;3.00;;;;;;;14.51;81.71;101983.56;4945959;29;20090;-83
2022/05/27 05:26:55;;;;;;;19.52;3.30;;;;;;;14.56;81.57;101980.34;4942205;29;20094;-82
2022/05/27 05:29:20;;;;;;;11.50;2.90;;;;;;;14.59;81.02;101986.25;4955524;29;20035;-81
2022/05/27 05:31:46;;;;;;;15.07;3.47;;;;;;;14.59;79.73;101982.72;4954301;29;20035;-82
2022/05/27 05:34:11;;;;;;;10.40;2.70;;;;;;;14.71;79.08;101989.38;4957056;29;20050;-83
2022/05/27 05:36:36;;;;;;;13.38;3.10;;;;;;;14.73;78.31;101990.03;4958305;29;20110;-82
2022/05/27 05:39:03;;;;;;;15.25;3.08;;;;;;;14.78;79.32;101992.22;4982082;28;20817;-84
2022/05/27 05:41:31;;;;;;;27.67;3.75;;;;;;;14.86;77.78;101992.97;4956805;28;20083;-87
2022/05/27 05:43:57;;;;;;;17.88;3.17;;;;;;;14.91;78.01;101989.72;4958957;28;20015;-83
2022/05/27 05:46:25;;;;;;;16.45;3.55;;;;;;;14.90;78.25;102002.44;4964732;28;20147;-85
2022/05/27 05:48:50;;;;;;;12.15;3.03;;;;;;;14.95;77.39;101996.44;4939471;29;20085;-83
2022/05/27 05:51:16;;;;;;;13.70;2.60;;;;;;;14.93;77.61;102009.38;4969102;28;20031;-84
2022/05/27 05:53:42;;;;;;;20.35;3.80;;;;;;;14.88;77.92;102001.78;4966820;29;20047;-85
2022/05/27 05:56:07;;;;;;;13.90;3.65;;;;;;;14.84;78.73;102010.44;4966104;29;20404;-85
2022/05/27 05:58:32;;;;;;;20.52;3.60;;;;;;;14.86;78.44;102003.81;4950504;29;20361;-87
2022/05/27 06:00:58;;;;;;;20.48;3.72;;;;;;;14.90;78.67;102004.28;4959071;28;20031;-84
2022/05/27 06:03:23;;;;;;;15.32;3.80;;;;;;;14.89;78.87;102003.44;4973353;28;20019;-85
2022/05/27 06:05:49;;;;;;;16.88;3.80;;;;;;;14.86;79.21;102005.69;4948480;29;20041;-84
2022/05/27 06:08:18;;;;;;;21.98;3.95;;;;;;;14.85;78.96;102023.81;4959747;29;20122;-79
2022/05/27 06:10:47;;;;;;;24.58;4.55;;;;;;;14.87;79.71;102015.50;4951934;29;20023;-82
2022/05/27 06:13:12;;;;;;;27.10;4.45;;;;;;;14.85;79.13;102017.53;4964652;29;20028;-82
2022/05/27 06:15:38;;;;;;;11.48;4.10;;;;;;;14.98;79.35;102023.22;4960649;28;20087;-82
2022/05/27 06:18:05;;;;;;;20.73;4.65;;;;;;;15.17;78.89;102026.44;4977232;28;20023;-82
2022/05/27 06:20:30;;;;;;;16.08;3.65;;;;;;;15.34;75.20;102011.69;4957329;29;20036;-83
2022/05/27 06:22:56;;;;;;;21.38;3.58;;;;;;;15.49;71.00;102026.13;4950858;29;20042;-85
2022/05/27 06:25:22;;;;;;;16.48;3.90;;;;;;;15.70;70.74;102027.28;4950865;29;20537;-85
2022/05/27 06:27:47;;;;;;;18.55;3.88;;;;;;;15.79;68.44;102028.88;4945267;29;20030;-83
2022/05/27 06:35:42;;;;;;;16.13;3.47;;;;;;;15.89;61.95;102032.16;4968734;28;20050;-79
2022/05/27 06:38:07;;;;;;;17.10;3.78;;;;;;;15.99;60.86;102042.72;4953627;29;20032;-80
2022/05/27 06:40:32;;;;;;;17.20;3.05;;;;;;;16.02;61.65;102043.19;4964385;28;20038;-81
2022/05/27 06:42:58;;;;;;;19.77;2.70;;;;;;;16.01;61.50;102049.66;4968848;28;20042;-82
2022/05/27 06:45:24;;;;;;;16.75;3.35;;;;;;;15.80;59.27;102050.41;4974120;28;20034;-84
2022/05/27 06:47:50;;;;;;;20.83;3.72;;;;;;;15.65;59.39;102056.81;4976233;28;20043;-82
2022/05/27 06:50:15;;;;;;;18.60;3.03;;;;;;;15.55;60.64;102057.09;4977674;28;20035;-83
2022/05/27 06:52:41;;;;;;;17.52;3.28;;;;;;;15.66;59.05;102059.34;4974912;29;20051;-80
2022/05/27 06:55:08;;;;;;;16.15;2.85;;;;;;;15.64;56.13;102063.25;4944877;29;20066;-84
2022/05/27 06:57:34;;;;;;;22.00;3.67;;;;;;;15.85;55.84;102052.56;4963895;29;20066;-83
2022/05/27 07:00:00;;;;;;;21.23;3.80;;;;;;;16.12;53.54;102066.50;4964295;29;20110;-83
2022/05/27 07:02:25;;;;;;;24.20;3.10;;;;;;;16.82;53.01;102065.88;4962203;28;20106;-82
2022/05/27 07:04:51;;;;;;;16.45;3.15;;;;;;;17.89;49.35;102061.34;4960585;29;20035;-83
2022/05/27 07:07:16;;;;;;;17.58;3.20;;;;;;;18.88;46.70;102066.34;4959780;29;20138;-81
2022/05/27 07:09:41;;;;;;;19.17;3.50;;;;;;;19.20;47.13;102069.31;4959850;29;20034;-81
2022/05/27 07:12:09;;;;;;;31.42;3.85;;;;;;;19.59;45.83;102073.06;4961488;29;20373;-82
2022/05/27 07:14:36;;;;;;;;;;;;;;;19.52;45.56;102070.34;4964036;29;20028;-83
2022/05/27 07:17:02;;;;;;;29.45;4.00;;;;;;;19.73;46.37;102072.03;4943046;29;19915;-83
2022/05/27 07:19:27;;;;;;;23.70;3.25;;;;;;;19.39;46.99;102067.63;4943083;29;20506;-82
2022/05/27 07:21:55;;;;;;;26.45;3.63;;;;;;;19.17;49.42;102067.84;4959897;28;20032;-84
2022/05/27 07:24:21;;;;;;;26.83;4.07;;;;;;;19.28;50.06;102074.56;4960807;29;20264;-84
2022/05/27 07:26:46;;;;;;;21.70;3.92;;;;;;;19.31;50.62;102074.16;4961516;28;20053;-83
2022/05/27 07:29:12;;;;;;;22.40;4.43;;;;;;;18.92;52.15;102083.97;4952067;28;20027;-85
2022/05/27 07:31:40;;;;;;;25.13;4.15;;;;;;;18.57;53.10;102075.88;4936860;29;20035;-85
2022/05/27 07:34:06;;;;;;;20.85;4.18;;;;;;;18.14;55.39;102084.31;4957258;29;20051;-85
2022/05/27 07:36:31;;;;;;;21.75;4.43;;;;;;;17.55;58.26;102088.28;4958573;29;20039;-84
2022/05/27 07:38:57;;;;;;;21.55;3.92;;;;;;;17.13;56.63;102083.75;4956959;29;20031;-83
2022/05/27 07:41:23;;;;;;;17.50;4.05;;;;;;;16.66;55.68;102083.25;4957201;29;20027;-84
2022/05/27 07:43:49;;;;;;;19.23;3.20;;;;;;;16.45;55.35;102094.06;4957561;29;20093;-83
2022/05/27 07:46:15;;;;;;;16.38;3.53;;;;;;;16.68;54.72;102091.22;4955980;29;20494;-83
2022/05/27 07:48:41;;;;;;;21.98;4.20;;;;;;;16.83;53.92;102086.63;4955648;29;20035;-82
2022/05/27 07:51:06;;;;;;;32.03;4.18;;;;;;;16.91;51.86;102087.53;4956016;29;20352;-84
2022/05/27 07:53:34;;;;;;;23.30;4.10;;;;;;;17.71;52.22;102097.22;4956770;29;20023;-83
2022/05/27 07:55:59;;;;;;;;;;;;;;;18.39;49.76;102100.97;4957941;29;20534;-83
2022/05/27 07:58:25;;;;;;;14.73;4.17;;;;;;;18.34;51.39;102097.19;4923653;29;19913;-82
2022/05/27 08:00:50;;;;;;;25.30;3.72;;;;;;;18.42;49.55;102108.75;4959051;29;20294;-82
2022/05/27 08:03:18;;;;;;;31.67;3.92;;;;;;;18.82;45.91;102102.63;4962769;29;20360;-82
2022/05/27 08:05:43;;;;;;;26.27;3.55;;;;;;;19.63;44.84;102107.09;4970691;29;20454;-88
2022/05/27 08:08:09;;;;;;;26.85;4.07;;;;;;;20.37;42.70;102108.63;4966070;29;20030;-85
2022/05/27 08:10:36;;;;;;;25.85;3.50;;;;;;;21.56;41.09;102111.72;4957445;29;20023;-83
2022/05/27 08:13:02;;;;;;;21.25;4.03;;;;;;;22.11;39.12;102109.06;4957208;29;20031;-83
2022/05/27 08:15:28;;;;;;;22.75;4.50;;;;;;;22.40;37.45;102109.38;4957865;29;20103;-86
2022/05/27 08:17:55;;;;;;;25.15;4.05;;;;;;;22.64;37.07;102113.09;4956850;29;20445;-85
2022/05/27 08:20:26;;;;;;;26.38;3.67;;;;;;;22.63;38.59;102119.66;4960157;29;20030;-87
2022/05/27 08:22:53;;;;;;;29.23;4.35;;;;;;;22.40;37.68;102120.38;4967787;29;20045;-84
2022/05/27 08:25:20;;;;;;;26.77;3.83;;;;;;;21.68;37.97;102104.47;4941993;29;20027;-84
2022/05/27 08:27:46;;;;;;;31.02;4.30;;;;;;;21.63;38.58;102113.34;4957308;29;20031;-82
2022/05/27 08:30:14;;;;;;;23.40;4.28;;;;;;;22.14;36.02;102120.44;4958107;29;20400;-85
2022/05/27 08:32:40;;;;;;;37.47;4.60;;;;;;;22.62;35.45;102120.72;4956662;29;20031;-85
2022/05/27 08:38:30;;;;;;;33.38;4.85;;;;;;;21.94;35.88;102132.69;4969388;29;20034;-85
2022/05/27 08:41:22;;;;;;;26.13;4.53;;;;;;;22.00;35.73;102135.34;4959849;28;20094;-85
2022/05/27 08:44:18;;;;;;;36.95;4.72;;;;;;;22.12;35.12;102128.03;4958891;29;20496;-85
2022/05/27 08:46:59;;;;;;;37.58;4.93;;;;;;;22.71;33.81;102146.78;4956918;29;20032;-85
2022/05/27 08:49:33;;;;;;;30.02;4.22;;;;;;;22.21;35.31;102142.31;4957726;29;20031;-85
2022/05/27 08:52:00;;;;;;;40.35;6.05;;;;;;;22.37;36.83;102143.59;4961081;29;20031;-86
2022/05/27 08:54:47;;;;;;;33.58;4.85;;;;;;;22.34;36.37;102150.38;4957602;29;20373;-84
2022/05/27 09:00:14;;;;;;;33.38;4.30;;;;;;;22.39;37.29;102160.69;4943644;29;20008;-84
2022/05/27 09:03:01;;;;;;;30.35;4.80;;;;;;;20.82;39.30;102150.53;4954734;29;20102;-81
2022/05/27 09:05:39;;;;;;;49.78;6.13;;;;;;;19.97;41.21;102157.13;4940045;29;20051;-83
2022/05/27 09:08:09;;;;;;;35.75;5.40;;;;;;;19.73;42.21;102157.56;4958067;29;20028;-83
2022/05/27 09:11:11;;;;;;;43.60;5.78;;;;;;;19.73;41.83;102145.78;4938299;29;20471;-83
2022/05/27 09:14:07;;;;;;;39.30;6.00;;;;;;;19.11;42.78;102163.34;4955412;29;20168;-83
2022/05/27 09:16:37;;;;;;;39.70;4.50;;;;;;;19.30;42.77;102149.75;4954109;29;20118;-82
2022/05/27 09:19:30;;;;;;;40.03;5.45;;;;;;;20.03;42.26;102151.63;4955898;28;20031;-83
2022/05/27 09:22:09;;;;;;;37.47;5.45;;;;;;;20.87;40.45;102165.47;4956331;29;20063;-85
2022/05/27 09:24:50;;;;;;;52.95;5.95;;;;;;;21.25;39.99;102155.34;4956767;29;20114;-84
2022/05/27 09:27:26;;;;;;;44.80;5.45;;;;;;;22.37;39.89;102162.81;4939289;29;20415;-84
2022/05/27 09:30:01;;;;;;;40.20;5.97;;;;;;;23.00;38.75;102167.94;4938418;29;20046;-85
2022/05/27 09:32:52;;;;;;;47.67;5.95;;;;;;;23.12;37.18;102175.41;4956238;29;20322;-84
2022/05/27 09:35:45;;;;;;;45.72;5.60;;;;;;;22.33;37.93;102178.06;4955926;29;20399;-84
2022/05/27 09:38:21;;;;;;;43.53;6.38;;;;;;;21.62;39.00;102169.22;4921315;29;20047;-84
2022/05/27 09:41:01;;;;;;;45.45;5.90;;;;;;;21.40;38.56;102176.13;4953733;29;20023;-82
2022/05/27 09:43:35;;;;;;;37.95;6.20;;;;;;;20.54;39.61;102174.69;4944021;29;20036;-83
2022/05/27 09:46:03;;;;;;;40.70;5.70;;;;;;;20.14;41.52;102163.78;4947113;29;20102;-84
2022/05/27 09:48:29;;;;;;;41.88;6.00;;;;;;;19.83;42.46;102168.06;4960744;29;20034;-84
2022/05/27 09:50:59;;;;;;;29.20;4.63;;;;;;;19.74;40.91;102169.31;4962980;28;20395;-84
2022/05/27 09:53:49;;;;;;;33.92;4.88;;;;;;;19.71;41.98;102180.66;4923078;29;20042;-84
2022/05/27 09:56:16;;;;;;;38.78;5.47;;;;;;;19.23;42.65;102178.06;4948442;29;20038;-80
2022/05/27 09:58:44;;;;;;;53.67;17.80;;;;;;;18.90;41.66;102181.53;4951493;29;20106;-85
2022/05/27 10:01:23;;;;;;;42.33;6.05;;;;;;;18.83;43.43;102184.25;4955061;29;20283;-84
2022/05/27 10:04:00;;;;;;;37.28;5.30;;;;;;;18.46;42.28;102185.53;4931277;29;20036;-83
2022/05/27 10:06:27;;;;;;;33.38;4.68;;;;;;;18.83;41.45;102194.34;4918982;29;20448;-85
2022/05/27 10:08:58;;;;;;;44.92;5.22;;;;;;;18.91;41.44;102196.03;4942948;29;20059;-82
2022/05/27 10:11:23;;;;;;;48.03;6.22;;;;;;;19.26;40.35;102183.09;4940987;29;20448;-83
2022/05/27 10:14:23;;;;;;;37.10;4.82;;;;;;;19.47;39.89;102188.38;4948747;29;20065;-81
2022/05/27 10:17:02;;;;;;;42.05;4.30;;;;;;;20.01;40.32;102191.16;4915380;29;20122;-85
2022/05/27 10:19:27;;;;;;;39.40;5.20;;;;;;;20.66;37.19;102189.34;4952662;29;20027;-86
2022/05/27 10:21:54;;;;;;;38.67;4.80;;;;;;;20.76;37.17;102194.34;4952175;29;20038;-82
2022/05/27 10:24:43;;;;;;;34.90;4.63;;;;;;;20.97;37.21;102195.94;4951130;29;20042;-82
2022/05/27 10:27:17;;;;;;;45.92;4.80;;;;;;;21.15;36.86;102198.78;4951353;29;20511;-81
2022/05/27 10:29:58;;;;;;;31.52;5.32;;;;;;;21.61;36.83;102214.09;4950250;29;20031;-80
2022/05/27 10:32:38;;;;;;;41.40;5.18;;;;;;;21.27;36.36;102196.19;4950388;29;20075;-82
2022/05/27 10:35:07;;;;;;;41.95;4.80;;;;;;;21.08;37.40;102205.34;4948359;29;20043;-82
2022/05/27 10:38:10;;;;;;;39.92;5.30;;;;;;;21.52;37.07;102203.66;4942144;29;20054;-82
2022/05/27 10:40:50;;;;;;;40.88;5.05;;;;;;;22.06;35.87;102210.34;4934559;29;20024;-83
2022/05/27 10:43:29;;;;;;;38.25;4.95;;;;;;;21.98;35.17;102214.22;4946512;29;20455;-83
2022/05/27 10:45:56;;;;;;;41.33;5.30;;;;;;;22.41;34.98;102218.91;4932427;29;20031;-82
2022/05/27 10:48:29;;;;;;;37.60;4.60;;;;;;;22.92;33.61;102206.66;4934406;29;20058;-84
2022/05/27 10:51:05;;;;;;;26.67;5.30;;;;;;;22.75;32.63;102213.88;4941741;29;20032;-83
2022/05/27 10:53:48;;;;;;;39.85;4.47;;;;;;;22.66;31.56;102216.06;4941940;29;20079;-82
2022/05/27 10:56:32;;;;;;;24.25;3.55;;;;;;;22.51;33.02;102219.22;4934899;29;20042;-83
2022/05/27 11:02:04;;;;;;;49.45;6.25;;;;;;;22.44;36.27;102221.19;4953503;29;20058;-82
2022/05/27 11:04:32;;;;;;;36.17;5.13;;;;;;;22.89;35.35;102225.53;4950785;29;20043;-83
2022/05/27 11:07:17;;;;;;;45.40;5.65;;;;;;;23.14;34.96;102228.16;4958540;29;20038;-84
2022/05/27 11:10:09;;;;;;;35.47;6.03;;;;;;;23.13;32.96;102227.31;4954677;29;20126;-81
2022/05/27 11:15:58;;;;;;;31.38;4.60;;;;;;;22.33;34.31;102232.91;4951505;29;20046;-82
2022/05/27 11:18:54;;;;;;;38.95;5.10;;;;;;;21.58;36.34;102236.47;4958790;28;20037;-82
2022/05/27 11:21:47;;;;;;;43.50;5.45;;;;;;;21.51;36.24;102241.13;4941967;29;20051;-82
2022/05/27 11:24:24;;;;;;;38.17;5.38;;;;;;;22.03;36.58;102247.28;4956793;29;20043;-82
2022/05/27 11:27:20;;;;;;;38.85;5.03;;;;;;;22.37;35.21;102247.84;4956934;29;20039;-81
2022/05/27 11:30:16;;;;;;;24.52;3.47;;;;;;;22.69;33.12;102233.97;4955784;29;20027;-82
2022/05/27 11:33:19;;;;;;;35.35;4.85;;;;;;;22.78;32.61;102247.19;4956698;29;20023;-82
2022/05/27 11:35:50;;;;;;;29.90;5.13;;;;;;;22.25;32.91;102246.91;4956267;29;20106;-82
2022/05/27 11:38:34;;;;;;;32.75;4.63;;;;;;;21.91;34.20;102255.41;4958422;29;20114;-82
2022/05/27 11:41:34;;;;;;;27.02;3.55;;;;;;;21.32;35.16;102248.38;4943127;29;20114;-82
2022/05/27 11:44:17;;;;;;;25.10;3.80;;;;;;;21.59;33.54;102251.84;4924031;29;20051;-82
2022/05/27 11:46:45;;;;;;;36.13;5.18;;;;;;;22.00;33.92;102244.97;4940398;29;20043;-83
2022/05/27 11:49:28;;;;;;;29.15;4.35;;;;;;;22.06;33.69;102255.03;4956333;29;20122;-83
2022/05/27 11:52:27;;;;;;;33.80;4.80;;;;;;;21.77;35.26;102255.72;4957598;29;20031;-82
2022/05/27 11:55:17;;;;;;;41.67;5.32;;;;;;;20.68;36.25;102236.47;4956955;29;20038;-83
2022/05/27 11:57:52;;;;;;;32.03;4.45;;;;;;;20.26;37.21;102249.56;4956164;29;20095;-83
2022/05/27 12:00:18;;;;;;;30.13;4.38;;;;;;;20.17;37.25;102239.94;4955469;29;20023;-82
2022/05/27 12:03:01;;;;;;;28.88;4.18;;;;;;;19.95;35.45;102256.53;4955701;29;20023;-83